Time;durP1;ratioP1;P1;durP2;ratioP2;P2;SDS_P1;SDS_P2;PMS_P1;PMS_P2;Temp;Humidity;BMP_temperature;BMP_pressure;BME280_temperature;BME280_humidity;BME280_pressure;Samples;Min_cycle;Max_cycle;Signal;HPM_P1;HPM_P2
2022/06/19 00:01:37;;;;;;;0.00;0.00;;;;;;;;;;4928420;29;20043;-57
2022/06/19 00:04:03;;;;;;;0.00;0.00;;;;;;;;;;4924770;29;20024;-58
2022/06/19 00:06:28;;;;;;;0.00;0.00;;;;;;;;;;4929219;29;20436;-57
2022/06/19 00:08:54;;;;;;;0.00;0.00;;;;;;;;;;4934839;29;20114;-58
2022/06/19 00:11:20;;;;;;;0.00;0.00;;;;;;;;;;4932740;29;20269;-59
2022/06/19 00:13:45;;;;;;;0.00;0.00;;;;;;;;;;4927963;29;20056;-57
2022/06/19 00:16:11;;;;;;;0.00;0.00;;;;;;;;;;4932226;29;20035;-58
2022/06/19 00:18:38;;;;;;;0.00;0.00;;;;;;;;;;4930772;29;20115;-58
2022/06/19 00:21:04;;;;;;;0.00;0.00;;;;;;;;;;4933181;29;20047;-58
2022/06/19 00:23:29;;;;;;;0.00;0.00;;;;;;;;;;4932271;29;20028;-58
2022/06/19 00:25:54;;;;;;;0.00;0.00;;;;;;;;;;4932048;29;20511;-57
2022/06/19 00:28:20;;;;;;;0.05;0.05;;;;;;;;;;4934156;29;20028;-58
2022/06/19 00:30:45;;;;;;;0.00;0.00;;;;;;;;;;4929856;29;20019;-57
2022/06/19 00:33:10;;;;;;;0.00;0.00;;;;;;;;;;4931628;29;20035;-57
2022/06/19 00:35:35;;;;;;;0.00;0.00;;;;;;;;;;4933424;29;20038;-57
2022/06/19 00:38:01;;;;;;;0.00;0.00;;;;;;;;;;4934002;29;20027;-55
2022/06/19 00:40:27;;;;;;;0.00;0.00;;;;;;;;;;4932142;29;20028;-56
2022/06/19 00:42:52;;;;;;;0.00;0.00;;;;;;;;;;4928932;29;20086;-57
2022/06/19 00:45:26;;;;;;;0.00;0.00;;;;;;;;;;4930583;29;20122;-57
2022/06/19 00:47:52;;;;;;;0.00;0.00;;;;;;;;;;4931916;29;20028;-57
2022/06/19 00:50:20;;;;;;;0.00;0.00;;;;;;;;;;4924422;29;20031;-57
2022/06/19 00:52:45;;;;;;;0.00;0.00;;;;;;;;;;4930522;29;20043;-58
2022/06/19 00:55:22;;;;;;;0.00;0.00;;;;;;;;;;4926122;29;20027;-58
2022/06/19 00:57:50;;;;;;;0.00;0.00;;;;;;;;;;4930641;29;20528;-55
2022/06/19 01:00:24;;;;;;;0.00;0.00;;;;;;;;;;4929998;29;20028;-55
2022/06/19 01:02:51;;;;;;;0.00;0.00;;;;;;;;;;4925303;29;20473;-55
2022/06/19 01:05:17;;;;;;;0.00;0.00;;;;;;;;;;4924590;29;20408;-55
2022/06/19 01:07:43;;;;;;;0.00;0.00;;;;;;;;;;4924322;29;20026;-56
2022/06/19 01:10:08;;;;;;;0.00;0.00;;;;;;;;;;4930880;29;20110;-56
2022/06/19 01:12:34;;;;;;;0.00;0.00;;;;;;;;;;4931298;29;20028;-57
2022/06/19 01:15:03;;;;;;;0.00;0.00;;;;;;;;;;4926644;29;20031;-56
2022/06/19 01:17:31;;;;;;;0.00;0.00;;;;;;;;;;4926990;29;20466;-59
2022/06/19 01:19:57;;;;;;;0.00;0.00;;;;;;;;;;4925889;29;20047;-57
2022/06/19 01:22:22;;;;;;;0.00;0.00;;;;;;;;;;4926253;29;20032;-57
2022/06/19 01:25:02;;;;;;;0.00;0.00;;;;;;;;;;4924470;29;20082;-57
2022/06/19 01:30:13;;;;;;;0.00;0.00;;;;;;;;;;4927237;29;20047;-57
2022/06/19 01:32:39;;;;;;;0.00;0.00;;;;;;;;;;4927354;29;20027;-56
2022/06/19 01:35:06;;;;;;;0.00;0.00;;;;;;;;;;4927475;29;20493;-55
2022/06/19 01:37:33;;;;;;;28.08;13.43;;;;;;;;;;4931856;29;20019;-59
2022/06/19 01:39:58;;;;;;;0.00;0.00;;;;;;;;;;4929929;29;20500;-54
2022/06/19 01:42:23;;;;;;;0.47;0.47;;;;;;;;;;4930203;29;20020;-56
2022/06/19 01:44:52;;;;;;;0.00;0.00;;;;;;;;;;4929188;29;20347;-55
2022/06/19 01:47:17;;;;;;;0.00;0.00;;;;;;;;;;4913806;29;20048;-55
2022/06/19 01:49:45;;;;;;;0.00;0.00;;;;;;;;;;4913356;29;20047;-56
2022/06/19 01:52:10;;;;;;;0.00;0.00;;;;;;;;;;4913754;29;20035;-56
2022/06/19 01:54:37;;;;;;;0.00;0.00;;;;;;;;;;4914468;29;20043;-54
2022/06/19 01:57:06;;;;;;;0.00;0.00;;;;;;;;;;4915493;29;20095;-56
2022/06/19 01:59:33;;;;;;;0.00;0.00;;;;;;;;;;4913850;29;20031;-56
2022/06/19 02:01:59;;;;;;;0.00;0.00;;;;;;;;;;4913569;29;20028;-55
2022/06/19 02:04:24;;;;;;;0.00;0.00;;;;;;;;;;4912449;29;20036;-54
2022/06/19 02:06:53;;;;;;;0.00;0.00;;;;;;;;;;4913629;29;20017;-55
2022/06/19 02:09:19;;;;;;;0.00;0.00;;;;;;;;;;4913805;29;20040;-54
2022/06/19 02:11:44;;;;;;;0.00;0.00;;;;;;;;;;4913880;29;20028;-55
2022/06/19 02:14:11;;;;;;;0.00;0.00;;;;;;;;;;4914256;29;20043;-51
2022/06/19 02:16:40;;;;;;;0.00;0.00;;;;;;;;;;4913167;29;20028;-53
2022/06/19 02:19:06;;;;;;;0.00;0.00;;;;;;;;;;4912755;29;20036;-54
2022/06/19 02:21:37;;;;;;;0.10;0.10;;;;;;;;;;4913217;29;20028;-54
2022/06/19 02:24:03;;;;;;;0.00;0.00;;;;;;;;;;4913332;29;20065;-53
2022/06/19 02:26:29;;;;;;;0.00;0.00;;;;;;;;;;4915443;29;20024;-53
2022/06/19 02:28:54;;;;;;;0.00;0.00;;;;;;;;;;4918506;29;20788;-55
2022/06/19 02:31:20;;;;;;;0.00;0.00;;;;;;;;;;4914379;29;20028;-55
2022/06/19 02:33:49;;;;;;;0.00;0.00;;;;;;;;;;4913630;29;20047;-51
2022/06/19 02:36:14;;;;;;;;;;;;;;;;;;4914468;29;20056;-52
2022/06/19 02:38:40;;;;;;;0.00;0.00;;;;;;;;;;4913807;29;19965;-52
2022/06/19 02:41:16;;;;;;;0.00;0.00;;;;;;;;;;4914815;29;20099;-54
2022/06/19 02:43:42;;;;;;;0.00;0.00;;;;;;;;;;4913072;29;20300;-56
2022/06/19 02:46:07;;;;;;;0.00;0.00;;;;;;;;;;4920855;29;20098;-53
2022/06/19 02:48:33;;;;;;;0.00;0.00;;;;;;;;;;4920159;29;20050;-52
2022/06/19 02:50:59;;;;;;;0.00;0.00;;;;;;;;;;4922962;29;20020;-55
2022/06/19 02:53:25;;;;;;;0.00;0.00;;;;;;;;;;4923540;29;20059;-52
2022/06/19 02:55:50;;;;;;;0.32;0.32;;;;;;;;;;4924536;29;20028;-53
2022/06/19 02:58:16;;;;;;;0.00;0.00;;;;;;;;;;4924592;29;20047;-54
2022/06/19 03:00:41;;;;;;;1.45;1.35;;;;;;;;;;4930555;29;20047;-49
2022/06/19 03:03:27;;;;;;;0.00;0.00;;;;;;;;;;4928207;29;20031;-53
2022/06/19 03:05:52;;;;;;;0.60;0.60;;;;;;;;;;4925559;29;20393;-54
2022/06/19 03:08:17;;;;;;;0.00;0.00;;;;;;;;;;4928121;29;20028;-52
2022/06/19 03:10:43;;;;;;;0.00;0.00;;;;;;;;;;4926318;29;20031;-53
2022/06/19 03:13:08;;;;;;;0.00;0.00;;;;;;;;;;4927113;29;20039;-54
2022/06/19 03:15:33;;;;;;;0.00;0.00;;;;;;;;;;4909467;29;20024;-54
2022/06/19 03:17:58;;;;;;;0.00;0.00;;;;;;;;;;4926336;29;20058;-54
2022/06/19 03:20:25;;;;;;;0.00;0.00;;;;;;;;;;4924984;29;20034;-55
2022/06/19 03:22:50;;;;;;;0.00;0.00;;;;;;;;;;4927184;29;20079;-55
2022/06/19 03:25:16;;;;;;;0.00;0.00;;;;;;;;;;4921366;29;20023;-55
2022/06/19 03:27:41;;;;;;;0.00;0.00;;;;;;;;;;4925164;29;20020;-54
2022/06/19 03:30:07;;;;;;;0.00;0.00;;;;;;;;;;4924833;29;20051;-54
2022/06/19 03:32:32;;;;;;;0.00;0.00;;;;;;;;;;4929478;29;20509;-52
2022/06/19 03:34:57;;;;;;;0.00;0.00;;;;;;;;;;4934069;29;20086;-54
2022/06/19 03:37:23;;;;;;;0.00;0.00;;;;;;;;;;4933057;29;20028;-56
2022/06/19 03:39:48;;;;;;;0.00;0.00;;;;;;;;;;4929379;29;20032;-56
2022/06/19 03:42:14;;;;;;;0.00;0.00;;;;;;;;;;4928609;29;20072;-55
2022/06/19 03:44:40;;;;;;;0.00;0.00;;;;;;;;;;4932181;29;20529;-55
2022/06/19 03:47:05;;;;;;;0.00;0.00;;;;;;;;;;4930374;29;20043;-57
2022/06/19 03:49:30;;;;;;;0.00;0.00;;;;;;;;;;4931372;29;20032;-58
2022/06/19 03:51:56;;;;;;;0.00;0.00;;;;;;;;;;4932985;29;20111;-55
2022/06/19 03:54:21;;;;;;;0.00;0.00;;;;;;;;;;4928192;29;20367;-57
2022/06/19 03:56:47;;;;;;;0.00;0.00;;;;;;;;;;4933086;29;20039;-57
2022/06/19 03:59:14;;;;;;;0.00;0.00;;;;;;;;;;4930211;29;20461;-54
2022/06/19 04:01:40;;;;;;;0.00;0.00;;;;;;;;;;4927123;29;20026;-51
2022/06/19 04:04:06;;;;;;;0.00;0.00;;;;;;;;;;4927188;29;20445;-55
2022/06/19 04:06:33;;;;;;;0.00;0.00;;;;;;;;;;4934773;29;20566;-56
2022/06/19 04:08:58;;;;;;;0.00;0.00;;;;;;;;;;4930653;29;20377;-56
2022/06/19 04:11:25;;;;;;;0.00;0.00;;;;;;;;;;4923929;29;20031;-56
2022/06/19 04:13:53;;;;;;;0.00;0.00;;;;;;;;;;4925609;29;20474;-55
2022/06/19 04:16:20;;;;;;;0.00;0.00;;;;;;;;;;4927420;29;20027;-54
2022/06/19 04:18:47;;;;;;;0.00;0.00;;;;;;;;;;4925895;29;20500;-53
2022/06/19 04:21:14;;;;;;;0.00;0.00;;;;;;;;;;4928779;29;20043;-53
2022/06/19 04:23:40;;;;;;;0.00;0.00;;;;;;;;;;4931112;29;20074;-51
2022/06/19 04:26:10;;;;;;;0.00;0.00;;;;;;;;;;4932510;29;20048;-51
2022/06/19 04:28:35;;;;;;;0.00;0.00;;;;;;;;;;4936136;29;20023;-54
2022/06/19 04:31:00;;;;;;;0.00;0.00;;;;;;;;;;4927236;29;20027;-53
2022/06/19 04:33:25;;;;;;;0.00;0.00;;;;;;;;;;4928750;29;20282;-54
2022/06/19 04:35:51;;;;;;;0.00;0.00;;;;;;;;;;4925132;29;20028;-55
2022/06/19 04:38:16;;;;;;;0.00;0.00;;;;;;;;;;4925560;29;20079;-52
2022/06/19 04:40:41;;;;;;;0.00;0.00;;;;;;;;;;4925848;29;20039;-54
2022/06/19 04:43:06;;;;;;;0.00;0.00;;;;;;;;;;4929054;29;20555;-55
2022/06/19 04:45:32;;;;;;;0.00;0.00;;;;;;;;;;4927684;29;20035;-56
2022/06/19 04:47:58;;;;;;;0.00;0.00;;;;;;;;;;4926949;29;20028;-56
2022/06/19 04:50:23;;;;;;;0.00;0.00;;;;;;;;;;4927945;29;20020;-57
2022/06/19 04:52:48;;;;;;;0.00;0.00;;;;;;;;;;4924037;29;20028;-57
2022/06/19 04:55:14;;;;;;;0.00;0.00;;;;;;;;;;4936690;29;20028;-58
2022/06/19 04:57:40;;;;;;;0.00;0.00;;;;;;;;;;4928657;29;20111;-57
2022/06/19 05:00:06;;;;;;;0.00;0.00;;;;;;;;;;4931062;29;20181;-58
2022/06/19 05:02:31;;;;;;;0.00;0.00;;;;;;;;;;4930152;29;20028;-59
2022/06/19 05:04:56;;;;;;;0.00;0.00;;;;;;;;;;4928811;29;20030;-56
2022/06/19 05:07:22;;;;;;;0.00;0.00;;;;;;;;;;4928867;29;20027;-57
2022/06/19 05:09:47;;;;;;;0.00;0.00;;;;;;;;;;4927354;29;20027;-56
2022/06/19 05:12:12;;;;;;;0.00;0.00;;;;;;;;;;4923515;29;20032;-56
2022/06/19 05:14:38;;;;;;;0.10;0.10;;;;;;;;;;4926358;29;20023;-57
2022/06/19 05:17:03;;;;;;;0.00;0.00;;;;;;;;;;4930101;29;20430;-57
2022/06/19 05:19:28;;;;;;;0.00;0.00;;;;;;;;;;4936341;29;20072;-58
2022/06/19 05:21:53;;;;;;;0.00;0.00;;;;;;;;;;4926251;29;20781;-56
2022/06/19 05:24:19;;;;;;;0.00;0.00;;;;;;;;;;4930591;29;20110;-57
2022/06/19 05:26:44;;;;;;;0.75;0.75;;;;;;;;;;4924081;29;20762;-57
2022/06/19 05:29:09;;;;;;;0.00;0.00;;;;;;;;;;4930312;29;20024;-57
2022/06/19 05:31:35;;;;;;;0.00;0.00;;;;;;;;;;4921917;29;20123;-57
2022/06/19 05:34:00;;;;;;;0.00;0.00;;;;;;;;;;4926065;29;20032;-57
2022/06/19 05:36:28;;;;;;;0.00;0.00;;;;;;;;;;4924632;29;20020;-57
2022/06/19 05:38:54;;;;;;;0.00;0.00;;;;;;;;;;4928394;29;20087;-52
2022/06/19 05:41:19;;;;;;;0.00;0.00;;;;;;;;;;4925088;29;20036;-58
2022/06/19 05:43:47;;;;;;;0.00;0.00;;;;;;;;;;4927413;29;20461;-59
2022/06/19 05:46:14;;;;;;;0.13;0.13;;;;;;;;;;4924072;29;20505;-56
2022/06/19 05:48:40;;;;;;;0.00;0.00;;;;;;;;;;4923038;29;20523;-56
2022/06/19 05:51:07;;;;;;;0.00;0.00;;;;;;;;;;4925074;29;20091;-57
2022/06/19 05:53:34;;;;;;;0.10;0.10;;;;;;;;;;4924744;29;20020;-56
2022/06/19 05:55:59;;;;;;;0.00;0.00;;;;;;;;;;4924950;29;20673;-58
2022/06/19 05:58:25;;;;;;;0.00;0.00;;;;;;;;;;4927533;29;20035;-56
2022/06/19 06:00:51;;;;;;;0.00;0.00;;;;;;;;;;4924636;29;20102;-58
2022/06/19 06:03:17;;;;;;;0.00;0.00;;;;;;;;;;4928937;29;20016;-58
2022/06/19 06:05:45;;;;;;;0.10;0.10;;;;;;;;;;4928843;29;20026;-57
2022/06/19 06:08:11;;;;;;;0.00;0.00;;;;;;;;;;4927467;29;20019;-59
2022/06/19 06:10:36;;;;;;;7.03;1.55;;;;;;;;;;4920275;29;20393;-58
2022/06/19 06:13:01;;;;;;;0.00;0.00;;;;;;;;;;4926257;29;20049;-57
2022/06/19 06:15:27;;;;;;;0.47;0.47;;;;;;;;;;4926887;29;20032;-57
2022/06/19 06:17:52;;;;;;;0.90;0.90;;;;;;;;;;4925351;29;20028;-57
2022/06/19 06:20:17;;;;;;;0.00;0.00;;;;;;;;;;4925504;29;20039;-58
2022/06/19 06:22:42;;;;;;;0.35;0.35;;;;;;;;;;4927785;29;20024;-57
2022/06/19 06:25:10;;;;;;;2.85;2.65;;;;;;;;;;4913771;29;20027;-58
2022/06/19 06:27:35;;;;;;;0.40;0.40;;;;;;;;;;4927514;29;20043;-59
2022/06/19 06:30:00;;;;;;;0.63;0.63;;;;;;;;;;4928754;29;20016;-58
2022/06/19 06:32:26;;;;;;;0.00;0.00;;;;;;;;;;4926765;29;20032;-58
2022/06/19 06:34:51;;;;;;;0.33;0.33;;;;;;;;;;4925866;29;20046;-58
2022/06/19 06:37:16;;;;;;;0.00;0.00;;;;;;;;;;4923601;29;20363;-58
2022/06/19 06:39:41;;;;;;;1.08;1.08;;;;;;;;;;4920251;29;20024;-58
2022/06/19 06:42:07;;;;;;;4.63;4.23;;;;;;;;;;4921639;29;20027;-56
2022/06/19 06:44:32;;;;;;;0.70;0.70;;;;;;;;;;4925250;29;20279;-57
2022/06/19 06:46:59;;;;;;;3.80;2.17;;;;;;;;;;4927174;29;20494;-57
2022/06/19 06:49:25;;;;;;;0.98;0.90;;;;;;;;;;4925391;29;20493;-57
2022/06/19 06:51:50;;;;;;;0.00;0.00;;;;;;;;;;4927899;29;20110;-58
2022/06/19 06:54:15;;;;;;;2.28;2.17;;;;;;;;;;4924329;29;20358;-58
2022/06/19 06:56:41;;;;;;;0.70;0.70;;;;;;;;;;4927688;29;20019;-58
2022/06/19 06:59:06;;;;;;;10.55;0.85;;;;;;;;;;4927648;29;20117;-57
2022/06/19 07:01:32;;;;;;;1.00;1.00;;;;;;;;;;4924493;29;20339;-56
2022/06/19 07:03:59;;;;;;;0.00;0.00;;;;;;;;;;4926880;29;20023;-58
2022/06/19 07:06:25;;;;;;;1.95;1.85;;;;;;;;;;4927945;29;20104;-60
2022/06/19 07:08:51;;;;;;;0.00;0.00;;;;;;;;;;4929676;29;20462;-58
2022/06/19 07:11:18;;;;;;;0.43;0.32;;;;;;;;;;4926689;29;20115;-58
2022/06/19 07:13:43;;;;;;;2.03;1.92;;;;;;;;;;4931323;29;20062;-57
2022/06/19 07:16:08;;;;;;;0.98;0.98;;;;;;;;;;4931206;29;20453;-56
2022/06/19 07:18:33;;;;;;;5.00;1.73;;;;;;;;;;4931870;29;20040;-58
2022/06/19 07:20:59;;;;;;;0.20;0.20;;;;;;;;;;4929854;29;20110;-58
2022/06/19 07:23:24;;;;;;;0.38;0.38;;;;;;;;;;4928680;29;20028;-57
2022/06/19 07:25:49;;;;;;;3.00;2.80;;;;;;;;;;4931419;29;20031;-57
2022/06/19 07:28:15;;;;;;;2.57;2.37;;;;;;;;;;4924215;29;20275;-57
2022/06/19 07:30:40;;;;;;;6.38;2.80;;;;;;;;;;4927197;29;20406;-58
2022/06/19 07:33:06;;;;;;;3.97;2.47;;;;;;;;;;4929496;29;20027;-58
2022/06/19 07:35:31;;;;;;;0.10;0.10;;;;;;;;;;4929770;29;20544;-58
2022/06/19 07:37:56;;;;;;;1.27;1.27;;;;;;;;;;4927647;29;20625;-58
2022/06/19 07:40:22;;;;;;;1.52;1.42;;;;;;;;;;4932510;29;20035;-58
2022/06/19 07:42:48;;;;;;;2.58;2.38;;;;;;;;;;4925737;29;20028;-58
2022/06/19 07:45:13;;;;;;;1.60;1.03;;;;;;;;;;4926225;29;20055;-58
2022/06/19 07:50:23;;;;;;;1.55;1.45;;;;;;;;;;4928194;29;20401;-60
2022/06/19 07:52:49;;;;;;;1.60;1.42;;;;;;;;;;4930039;29;20035;-59
2022/06/19 07:55:16;;;;;;;3.05;2.83;;;;;;;;;;4931974;29;20134;-59
2022/06/19 07:57:41;;;;;;;1.02;1.02;;;;;;;;;;4937982;29;20024;-58
2022/06/19 08:00:08;;;;;;;0.00;0.00;;;;;;;;;;4936709;29;20362;-59
2022/06/19 08:02:33;;;;;;;1.50;1.30;;;;;;;;;;4935308;29;20024;-58
2022/06/19 08:04:58;;;;;;;1.83;1.70;;;;;;;;;;4935068;29;20020;-59
2022/06/19 08:07:24;;;;;;;2.55;2.45;;;;;;;;;;4937577;29;20350;-57
2022/06/19 08:09:49;;;;;;;1.80;1.70;;;;;;;;;;4941084;29;20038;-56
2022/06/19 08:12:14;;;;;;;13.32;2.42;;;;;;;;;;4941073;29;20271;-57
2022/06/19 08:14:39;;;;;;;8.20;3.20;;;;;;;;;;4938284;29;20024;-57
2022/06/19 08:17:05;;;;;;;2.08;1.70;;;;;;;;;;4942597;29;20071;-56
2022/06/19 08:19:30;;;;;;;0.15;0.05;;;;;;;;;;4931191;29;20042;-56
2022/06/19 08:21:56;;;;;;;0.52;0.52;;;;;;;;;;4941313;29;20058;-56
2022/06/19 08:24:21;;;;;;;0.10;0.10;;;;;;;;;;4934085;29;20035;-57
2022/06/19 08:26:49;;;;;;;0.25;0.17;;;;;;;;;;4936522;29;20267;-56
2022/06/19 08:29:14;;;;;;;4.43;4.00;;;;;;;;;;4931168;29;20386;-58
2022/06/19 08:31:41;;;;;;;15.60;14.10;;;;;;;;;;4942050;29;20031;-57
2022/06/19 08:34:06;;;;;;;2.63;2.35;;;;;;;;;;4938540;29;20263;-57
2022/06/19 08:36:33;;;;;;;2.57;2.37;;;;;;;;;;4936936;29;20041;-59
2022/06/19 08:39:00;;;;;;;3.63;3.33;;;;;;;;;;4940270;29;20283;-58
2022/06/19 08:41:31;;;;;;;1.95;1.85;;;;;;;;;;4934064;29;20369;-60
2022/06/19 08:43:59;;;;;;;1.95;1.85;;;;;;;;;;4938661;29;20027;-60
2022/06/19 08:46:43;;;;;;;0.38;0.38;;;;;;;;;;4912410;29;20180;-57
2022/06/19 08:49:08;;;;;;;0.40;0.38;;;;;;;;;;4934333;29;20040;-58
2022/06/19 08:51:34;;;;;;;0.10;0.10;;;;;;;;;;4933230;29;20035;-57
2022/06/19 08:54:17;;;;;;;1.97;1.87;;;;;;;;;;4939342;29;20267;-56
2022/06/19 08:57:07;;;;;;;0.15;0.15;;;;;;;;;;4932882;29;20315;-58
2022/06/19 08:59:41;;;;;;;2.85;2.65;;;;;;;;;;4931162;29;20036;-57
2022/06/19 09:02:15;;;;;;;0.10;0.10;;;;;;;;;;4934306;29;20027;-57
2022/06/19 09:07:33;;;;;;;1.42;1.38;;;;;;;;;;4943826;29;20034;-57
2022/06/19 09:10:04;;;;;;;2.23;0.80;;;;;;;;;;4936593;29;20102;-57
2022/06/19 09:12:32;;;;;;;4.55;2.28;;;;;;;;;;4933433;29;20028;-56
2022/06/19 09:15:18;;;;;;;7.20;2.55;;;;;;;;;;4935087;29;20031;-58
2022/06/19 09:17:52;;;;;;;1.67;1.58;;;;;;;;;;4938159;29;20036;-57
2022/06/19 09:20:27;;;;;;;0.55;0.55;;;;;;;;;;4934230;29;20059;-58
2022/06/19 09:22:52;;;;;;;3.55;1.27;;;;;;;;;;4935253;29;20019;-58
2022/06/19 09:25:17;;;;;;;2.93;0.43;;;;;;;;;;4935234;29;20036;-56
2022/06/19 09:28:01;;;;;;;1.00;1.00;;;;;;;;;;4932982;29;20310;-56
2022/06/19 09:30:29;;;;;;;2.10;2.00;;;;;;;;;;4918746;29;20271;-58
2022/06/19 09:32:57;;;;;;;0.65;0.65;;;;;;;;;;4938407;29;20032;-57
2022/06/19 09:35:26;;;;;;;3.13;2.47;;;;;;;;;;4934166;29;20039;-57
2022/06/19 09:38:05;;;;;;;0.00;0.00;;;;;;;;;;4942368;29;20046;-58
2022/06/19 09:40:34;;;;;;;0.00;0.00;;;;;;;;;;4937300;29;20031;-58
2022/06/19 09:42:59;;;;;;;0.00;0.00;;;;;;;;;;4931639;29;20031;-58
2022/06/19 09:45:27;;;;;;;2.60;2.40;;;;;;;;;;4939329;29;20366;-57
2022/06/19 09:47:56;;;;;;;1.42;1.17;;;;;;;;;;4937700;29;20024;-58
2022/06/19 09:50:24;;;;;;;1.92;1.83;;;;;;;;;;4943645;29;20346;-58
2022/06/19 09:53:04;;;;;;;0.85;0.85;;;;;;;;;;4943073;29;20103;-56
2022/06/19 09:55:37;;;;;;;1.45;1.08;;;;;;;;;;4937066;29;20039;-57
2022/06/19 09:58:04;;;;;;;0.68;0.30;;;;;;;;;;4928529;29;20596;-56
2022/06/19 10:00:32;;;;;;;0.80;0.68;;;;;;;;;;4937517;29;20111;-56
2022/06/19 10:03:13;;;;;;;1.10;1.10;;;;;;;;;;4927062;29;20023;-56
2022/06/19 10:05:38;;;;;;;1.75;1.65;;;;;;;;;;4940855;29;20107;-58
2022/06/19 10:08:12;;;;;;;0.75;0.75;;;;;;;;;;4939691;29;20505;-57
2022/06/19 10:10:47;;;;;;;0.00;0.00;;;;;;;;;;4924780;29;20031;-58
2022/06/19 10:13:18;;;;;;;0.10;0.10;;;;;;;;;;4932939;29;20036;-59
2022/06/19 10:15:44;;;;;;;2.83;2.30;;;;;;;;;;4937951;29;20111;-57
2022/06/19 10:18:16;;;;;;;0.75;0.75;;;;;;;;;;4942628;29;20034;-57
2022/06/19 10:20:59;;;;;;;0.30;0.30;;;;;;;;;;4936272;29;20074;-57
2022/06/19 10:23:29;;;;;;;0.38;0.38;;;;;;;;;;4932429;29;20023;-58
2022/06/19 10:26:18;;;;;;;0.95;0.95;;;;;;;;;;4933848;29;20016;-59
2022/06/19 10:28:50;;;;;;;0.98;0.98;;;;;;;;;;4928397;29;20537;-57
2022/06/19 10:31:34;;;;;;;0.00;0.00;;;;;;;;;;4937636;29;20036;-58
2022/06/19 10:34:17;;;;;;;0.70;0.70;;;;;;;;;;4937539;29;20031;-58
2022/06/19 10:36:45;;;;;;;0.28;0.28;;;;;;;;;;4938278;29;20453;-58
2022/06/19 10:39:31;;;;;;;0.00;0.00;;;;;;;;;;4936797;29;20019;-57
2022/06/19 10:42:17;;;;;;;0.38;0.15;;;;;;;;;;4935716;29;20028;-58
2022/06/19 10:44:51;;;;;;;1.00;1.00;;;;;;;;;;4937333;29;20462;-58
2022/06/19 10:47:31;;;;;;;1.58;1.48;;;;;;;;;;4933471;29;20135;-55
2022/06/19 10:50:06;;;;;;;0.00;0.00;;;;;;;;;;4929057;29;20028;-57
2022/06/19 10:52:47;;;;;;;1.42;1.35;;;;;;;;;;4934432;29;20030;-59
2022/06/19 10:55:21;;;;;;;0.57;0.57;;;;;;;;;;4908879;29;20488;-58
2022/06/19 10:57:57;;;;;;;0.70;0.70;;;;;;;;;;4930567;29;20063;-58
2022/06/19 11:00:23;;;;;;;0.00;0.00;;;;;;;;;;4927075;29;20020;-57
2022/06/19 11:06:13;;;;;;;4.13;2.08;;;;;;;;;;4938883;29;20409;-58
2022/06/19 11:08:43;;;;;;;0.57;0.57;;;;;;;;;;4942899;29;20066;-59
2022/06/19 11:11:09;;;;;;;0.40;0.40;;;;;;;;;;4940273;29;20050;-58
2022/06/19 11:13:53;;;;;;;0.00;0.00;;;;;;;;;;4934202;29;20020;-59
2022/06/19 11:16:18;;;;;;;0.05;0.05;;;;;;;;;;4936855;29;20023;-58
2022/06/19 11:18:45;;;;;;;0.45;0.45;;;;;;;;;;4946018;29;20027;-59
2022/06/19 11:21:14;;;;;;;0.88;0.82;;;;;;;;;;4937120;29;20078;-58
2022/06/19 11:23:50;;;;;;;2.20;1.95;;;;;;;;;;4937319;29;20031;-58
2022/06/19 11:26:17;;;;;;;0.85;0.85;;;;;;;;;;4929655;29;20384;-57
2022/06/19 11:28:54;;;;;;;0.00;0.00;;;;;;;;;;4937717;29;20019;-57
2022/06/19 11:31:30;;;;;;;1.10;1.08;;;;;;;;;;4930731;29;20112;-57
2022/06/19 11:33:57;;;;;;;2.72;1.60;;;;;;;;;;4924606;29;20462;-59
2022/06/19 11:36:36;;;;;;;0.20;0.20;;;;;;;;;;4946121;29;20357;-61
2022/06/19 11:39:21;;;;;;;0.57;0.25;;;;;;;;;;4936345;29;20028;-61
2022/06/19 11:41:47;;;;;;;8.88;7.00;;;;;;;;;;4933759;29;20023;-63
2022/06/19 11:44:17;;;;;;;7.57;6.80;;;;;;;;;;4937943;29;20019;-62
2022/06/19 11:46:50;;;;;;;0.98;0.98;;;;;;;;;;4934072;29;20293;-63
2022/06/19 11:49:18;;;;;;;1.08;1.08;;;;;;;;;;4937490;29;20034;-62
2022/06/19 11:51:44;;;;;;;1.73;1.65;;;;;;;;;;4937412;29;20035;-61
2022/06/19 11:54:12;;;;;;;1.20;1.10;;;;;;;;;;4936323;29;20072;-62
2022/06/19 11:56:38;;;;;;;0.00;0.00;;;;;;;;;;4928768;29;20031;-61
2022/06/19 11:59:05;;;;;;;1.13;1.08;;;;;;;;;;4934251;29;20043;-62
2022/06/19 12:01:49;;;;;;;0.70;0.70;;;;;;;;;;4936909;29;20028;-62
2022/06/19 12:04:29;;;;;;;0.52;0.38;;;;;;;;;;4946072;29;20026;-63
2022/06/19 12:06:57;;;;;;;5.82;1.48;;;;;;;;;;4944144;29;20023;-62
2022/06/19 12:09:36;;;;;;;0.10;0.10;;;;;;;;;;4935124;29;20032;-63
2022/06/19 12:12:07;;;;;;;0.08;0.08;;;;;;;;;;4950363;29;20050;-62
2022/06/19 12:14:34;;;;;;;0.05;0.05;;;;;;;;;;4935791;29;20377;-62
2022/06/19 12:17:13;;;;;;;3.17;2.38;;;;;;;;;;4942945;29;20024;-62
2022/06/19 12:19:46;;;;;;;0.22;0.22;;;;;;;;;;4940642;29;20032;-61
2022/06/19 12:22:12;;;;;;;1.75;1.75;;;;;;;;;;4930041;29;20156;-62
2022/06/19 12:24:42;;;;;;;4.90;0.98;;;;;;;;;;4930604;29;20099;-62
2022/06/19 12:27:10;;;;;;;2.10;2.05;;;;;;;;;;4945581;29;20023;-61
2022/06/19 12:29:49;;;;;;;0.00;0.00;;;;;;;;;;4937342;29;20028;-62
2022/06/19 12:32:33;;;;;;;3.42;3.13;;;;;;;;;;4946003;29;20432;-62
2022/06/19 12:35:00;;;;;;;0.40;0.40;;;;;;;;;;4937727;29;20027;-62
2022/06/19 12:37:28;;;;;;;1.33;0.32;;;;;;;;;;4936091;29;20042;-62
2022/06/19 12:39:54;;;;;;;1.98;1.48;;;;;;;;;;4941217;29;20037;-63
2022/06/19 12:42:20;;;;;;;0.32;0.32;;;;;;;;;;4935000;29;20110;-62
2022/06/19 12:44:45;;;;;;;0.65;0.65;;;;;;;;;;4941000;29;20054;-62
2022/06/19 12:47:16;;;;;;;0.33;0.33;;;;;;;;;;4945555;29;20401;-62
2022/06/19 12:49:49;;;;;;;0.00;0.00;;;;;;;;;;4936562;29;20628;-61
2022/06/19 12:52:24;;;;;;;0.80;0.80;;;;;;;;;;4925566;29;20473;-62
2022/06/19 12:54:52;;;;;;;0.55;0.55;;;;;;;;;;4927841;29;20399;-62
2022/06/19 12:57:23;;;;;;;0.20;0.20;;;;;;;;;;4940502;29;20473;-62
2022/06/19 13:00:07;;;;;;;0.00;0.00;;;;;;;;;;4942356;29;20023;-63
2022/06/19 13:02:32;;;;;;;0.00;0.00;;;;;;;;;;4931462;29;20032;-62
2022/06/19 13:05:02;;;;;;;0.10;0.10;;;;;;;;;;4928532;29;20079;-62
2022/06/19 13:07:46;;;;;;;0.00;0.00;;;;;;;;;;4930612;29;20031;-63
2022/06/19 13:10:26;;;;;;;0.00;0.00;;;;;;;;;;4928544;29;20044;-63
2022/06/19 13:12:54;;;;;;;0.00;0.00;;;;;;;;;;4932899;29;20024;-62
2022/06/19 13:15:42;;;;;;;0.10;0.10;;;;;;;;;;4933037;29;20023;-64
2022/06/19 13:18:08;;;;;;;0.32;0.28;;;;;;;;;;4930701;29;20536;-62
2022/06/19 13:20:39;;;;;;;0.00;0.00;;;;;;;;;;4933853;29;20020;-62
2022/06/19 13:23:04;;;;;;;0.00;0.00;;;;;;;;;;4938352;29;20377;-62
2022/06/19 13:25:44;;;;;;;0.10;0.10;;;;;;;;;;4936389;29;20047;-62
2022/06/19 13:28:10;;;;;;;1.00;1.00;;;;;;;;;;4936751;29;20732;-63
2022/06/19 13:30:49;;;;;;;0.03;0.03;;;;;;;;;;4943748;29;20172;-62
2022/06/19 13:33:17;;;;;;;0.15;0.15;;;;;;;;;;4933399;29;20469;-64
2022/06/19 13:35:45;;;;;;;0.43;0.43;;;;;;;;;;4929792;29;20457;-61
2022/06/19 13:38:23;;;;;;;0.00;0.00;;;;;;;;;;4937461;29;20028;-61
2022/06/19 13:40:54;;;;;;;0.10;0.10;;;;;;;;;;4937880;29;20417;-60
2022/06/19 13:43:38;;;;;;;0.43;0.43;;;;;;;;;;4925619;29;20027;-62
2022/06/19 13:46:04;;;;;;;0.00;0.00;;;;;;;;;;4940190;29;20063;-62
2022/06/19 13:48:36;;;;;;;0.00;0.00;;;;;;;;;;4935096;29;20020;-61
2022/06/19 13:51:19;;;;;;;0.00;0.00;;;;;;;;;;4944556;29;20087;-60
2022/06/19 13:53:45;;;;;;;0.00;0.00;;;;;;;;;;4938599;29;20036;-61
2022/06/19 13:56:13;;;;;;;0.97;0.93;;;;;;;;;;4912483;29;20031;-62
2022/06/19 13:58:48;;;;;;;0.98;0.98;;;;;;;;;;4914703;29;20331;-62
2022/06/19 14:01:13;;;;;;;0.10;0.10;;;;;;;;;;4938499;29;20070;-62
2022/06/19 14:07:07;;;;;;;0.43;0.43;;;;;;;;;;4933566;29;20031;-62
2022/06/19 14:09:32;;;;;;;0.00;0.00;;;;;;;;;;4939535;29;21179;-62
2022/06/19 14:12:08;;;;;;;0.00;0.00;;;;;;;;;;4934169;29;20030;-62
2022/06/19 14:14:45;;;;;;;0.00;0.00;;;;;;;;;;4930035;29;20272;-63
2022/06/19 14:17:22;;;;;;;0.00;0.00;;;;;;;;;;4935725;29;20027;-62
2022/06/19 14:20:12;;;;;;;0.00;0.00;;;;;;;;;;4930850;29;20043;-63
2022/06/19 14:22:37;;;;;;;0.00;0.00;;;;;;;;;;4925424;29;20047;-61
2022/06/19 14:25:22;;;;;;;0.00;0.00;;;;;;;;;;4917412;29;20024;-61
2022/06/19 14:27:53;;;;;;;0.00;0.00;;;;;;;;;;4941023;29;20050;-62
2022/06/19 14:30:23;;;;;;;0.00;0.00;;;;;;;;;;4936193;29;20478;-63
2022/06/19 14:32:50;;;;;;;0.00;0.00;;;;;;;;;;4934979;29;20032;-62
2022/06/19 14:35:15;;;;;;;0.70;0.57;;;;;;;;;;4931495;29;20336;-63
2022/06/19 14:37:45;;;;;;;1.10;1.10;;;;;;;;;;4935455;29;20029;-63
2022/06/19 14:40:19;;;;;;;0.00;0.00;;;;;;;;;;4941454;29;20035;-63
2022/06/19 14:42:53;;;;;;;6.47;5.07;;;;;;;;;;4935582;29;20020;-63
2022/06/19 14:45:20;;;;;;;0.20;0.20;;;;;;;;;;4941210;29;20047;-63
2022/06/19 14:48:08;;;;;;;0.00;0.00;;;;;;;;;;4936767;29;20024;-63
2022/06/19 14:50:33;;;;;;;;;;;;;;;;;;4938845;29;20478;-63
2022/06/19 14:53:20;;;;;;;1.42;1.33;;;;;;;;;;4937569;29;20242;-63
2022/06/19 14:56:04;;;;;;;1.58;1.40;;;;;;;;;;4921554;29;20039;-62
2022/06/19 14:58:37;;;;;;;0.00;0.00;;;;;;;;;;4940171;29;20023;-62
2022/06/19 15:01:03;;;;;;;6.07;3.80;;;;;;;;;;4939988;29;20493;-61
2022/06/19 15:03:34;;;;;;;0.10;0.10;;;;;;;;;;4936486;29;20110;-62
2022/06/19 15:06:15;;;;;;;0.55;0.55;;;;;;;;;;4935197;29;20023;-62
2022/06/19 15:08:41;;;;;;;0.00;0.00;;;;;;;;;;4936383;29;20130;-63